Time;durP1;ratioP1;P1;durP2;ratioP2;P2;SDS_P1;SDS_P2;PMS_P1;PMS_P2;Temp;Humidity;BMP_temperature;BMP_pressure;BME280_temperature;BME280_humidity;BME280_pressure;Samples;Min_cycle;Max_cycle;Signal;HPM_P1;HPM_P2
2022/02/12 00:00:17;;;;;;;63.30;21.00;;;;;;;1.42;92.90;97556.78;5043265;28;20053;-57
2022/02/12 00:02:43;;;;;;;50.47;19.40;;;;;;;1.76;92.58;97585.66;5024729;28;20041;-60
2022/02/12 00:05:10;;;;;;;40.13;16.45;;;;;;;1.07;95.45;97595.56;5043393;28;20061;-56
2022/02/12 00:07:37;;;;;;;42.45;16.17;;;;;;;1.36;95.74;97579.81;5041942;28;20310;-58
2022/02/12 00:10:05;;;;;;;50.92;20.65;;;;;;;1.44;95.56;97583.78;5043453;28;20068;-57
2022/02/12 00:12:32;;;;;;;70.20;24.48;;;;;;;1.17;95.10;97529.13;5043343;28;20049;-60
2022/02/12 00:14:59;;;;;;;90.90;32.50;;;;;;;1.60;95.82;97581.63;5043401;28;20053;-60
2022/02/12 00:17:26;;;;;;;47.42;20.42;;;;;;;1.11;95.09;97495.66;5044009;28;20102;-60
2022/02/12 00:19:53;;;;;;;43.30;16.00;;;;;;;1.75;93.53;97587.59;5043976;28;20438;-57
2022/02/12 00:22:20;;;;;;;45.58;16.60;;;;;;;1.58;93.00;97565.53;5043727;28;20051;-57
2022/02/12 00:24:46;;;;;;;39.58;15.50;;;;;;;1.60;93.21;97557.03;5041687;28;20055;-58
2022/02/12 00:27:13;;;;;;;32.50;13.35;;;;;;;1.92;92.69;97587.00;5043536;28;20053;-57
2022/02/12 00:29:41;;;;;;;53.85;20.25;;;;;;;1.87;93.79;97596.13;5043145;28;20049;-59
2022/02/12 00:32:09;;;;;;;41.83;14.10;;;;;;;1.91;93.77;97590.88;5041689;28;20130;-57
2022/02/12 00:34:36;;;;;;;58.88;19.17;;;;;;;1.86;94.58;97599.16;5042743;28;20060;-57
2022/02/12 00:37:03;;;;;;;60.40;20.88;;;;;;;1.42;95.98;97561.44;5042708;28;20049;-57
2022/02/12 00:39:30;;;;;;;51.85;18.95;;;;;;;1.70;94.80;97595.88;5042193;28;20555;-60
2022/02/12 00:41:57;;;;;;;43.50;15.27;;;;;;;1.72;94.38;97603.78;5041706;28;20510;-57
2022/02/12 00:44:23;;;;;;;31.10;11.23;;;;;;;1.21;93.47;97539.16;5041714;28;20049;-60
2022/02/12 00:46:51;;;;;;;37.00;12.85;;;;;;;1.65;93.38;97576.03;5043219;28;20139;-60
2022/02/12 00:49:18;;;;;;;95.60;26.73;;;;;;;1.78;93.51;97591.66;5043188;28;20057;-59
2022/02/12 00:51:46;;;;;;;44.45;17.00;;;;;;;1.77;93.65;97581.84;5043401;28;20065;-60
2022/02/12 00:54:13;;;;;;;70.75;25.95;;;;;;;1.83;93.56;97588.84;5043008;28;20056;-56
2022/02/12 00:56:41;;;;;;;45.10;16.02;;;;;;;1.80;92.70;97589.44;5043041;28;20060;-59
2022/02/12 00:59:08;;;;;;;28.73;11.73;;;;;;;1.76;93.32;97589.22;5042936;28;20057;-58
2022/02/12 01:01:35;;;;;;;42.97;19.38;;;;;;;1.26;92.90;97506.34;5043194;28;20063;-57
2022/02/12 01:04:03;;;;;;;29.77;12.80;;;;;;;1.39;93.59;97530.09;5042557;28;20223;-57
2022/02/12 01:06:31;;;;;;;27.55;12.40;;;;;;;1.45;93.25;97537.06;5041494;28;20144;-60
2022/02/12 01:08:58;;;;;;;25.83;11.95;;;;;;;1.47;92.25;97559.44;5043048;28;20049;-58
2022/02/12 01:11:26;;;;;;;29.40;12.32;;;;;;;1.89;92.63;97593.09;5043363;28;20064;-57
2022/02/12 01:13:52;;;;;;;25.00;11.07;;;;;;;1.85;92.79;97586.63;5044962;28;20048;-59
2022/02/12 01:16:19;;;;;;;29.23;11.32;;;;;;;1.58;92.60;97542.88;5046215;28;20071;-57
2022/02/12 01:18:46;;;;;;;46.97;19.13;;;;;;;1.70;93.76;97579.50;5044969;28;20059;-57
2022/02/12 01:21:14;;;;;;;30.05;12.38;;;;;;;1.78;93.06;97580.72;5045205;28;20060;-59
2022/02/12 01:23:41;;;;;;;27.05;12.15;;;;;;;1.88;91.57;97581.34;5046270;28;20052;-59
2022/02/12 01:26:08;;;;;;;26.80;12.00;;;;;;;1.94;90.73;97590.25;5046324;28;20052;-57
2022/02/12 01:28:35;;;;;;;23.65;11.48;;;;;;;1.66;92.15;97562.09;5046151;28;20060;-59
2022/02/12 01:31:02;;;;;;;23.10;10.93;;;;;;;1.32;92.91;97507.84;5046515;28;20045;-60
2022/02/12 01:33:29;;;;;;;18.80;9.30;;;;;;;1.89;93.49;97587.63;5046273;28;20048;-55
2022/02/12 01:35:55;;;;;;;18.60;8.50;;;;;;;1.88;94.17;97583.28;5045934;28;20060;-59
2022/02/12 01:38:22;;;;;;;16.73;7.47;;;;;;;1.76;94.29;97610.25;5044069;28;20057;-57
2022/02/12 01:40:49;;;;;;;29.00;11.05;;;;;;;1.75;94.28;97564.94;5045753;28;20514;-62
2022/02/12 01:43:15;;;;;;;22.60;9.95;;;;;;;1.31;92.73;97502.69;5046495;28;20440;-58
2022/02/12 01:45:42;;;;;;;25.27;12.25;;;;;;;1.81;92.24;97591.03;5044664;28;20049;-58
2022/02/12 01:48:09;;;;;;;22.20;10.65;;;;;;;1.79;91.25;97587.81;5045371;28;20063;-60
2022/02/12 01:50:36;;;;;;;20.73;10.07;;;;;;;1.80;92.27;97589.44;5045962;28;20055;-56
2022/02/12 01:53:03;;;;;;;27.35;11.45;;;;;;;1.74;92.27;97607.03;5045475;28;20044;-55
2022/02/12 01:55:30;;;;;;;36.47;12.40;;;;;;;1.70;92.78;97589.59;5045324;28;20610;-56
2022/02/12 01:57:57;;;;;;;30.88;12.50;;;;;;;1.34;93.29;97548.47;5045335;28;20053;-56
2022/02/12 02:00:24;;;;;;;48.03;16.77;;;;;;;1.83;92.59;97605.22;5045266;28;20091;-58
2022/02/12 02:02:51;;;;;;;34.85;13.95;;;;;;;1.76;92.66;97604.78;5045274;28;20552;-55
2022/02/12 02:05:19;;;;;;;32.95;14.55;;;;;;;1.65;92.01;97578.78;5045296;28;20048;-59
2022/02/12 02:07:46;;;;;;;34.38;13.85;;;;;;;1.30;91.86;97551.00;5044012;28;20048;-59
2022/02/12 02:10:14;;;;;;;22.42;9.30;;;;;;;1.48;92.49;97588.34;5045371;28;20056;-56
2022/02/12 02:12:41;;;;;;;20.65;8.95;;;;;;;1.61;93.03;97613.25;5045673;28;20057;-58
2022/02/12 02:15:08;;;;;;;25.27;9.85;;;;;;;1.68;92.86;97619.13;5045231;28;20067;-55
2022/02/12 02:17:35;;;;;;;22.92;8.80;;;;;;;1.69;93.93;97626.22;5045331;28;20055;-59
2022/02/12 02:20:04;;;;;;;24.35;9.13;;;;;;;1.46;94.16;97587.84;5045206;28;20094;-58
2022/02/12 02:22:43;;;;;;;25.90;10.32;;;;;;;1.74;93.81;97620.69;5043489;28;20059;-59
2022/02/12 02:25:10;;;;;;;20.98;8.07;;;;;;;1.67;94.66;97618.34;5043937;28;20048;-59
2022/02/12 02:27:37;;;;;;;17.48;7.30;;;;;;;1.61;96.10;97624.16;5043789;28;20060;-59
2022/02/12 02:30:05;;;;;;;18.65;6.63;;;;;;;1.52;96.62;97600.28;5045006;28;20052;-59
2022/02/12 02:32:32;;;;;;;15.18;6.22;;;;;;;1.80;97.30;97625.75;5044353;28;20060;-58
2022/02/12 02:34:58;;;;;;;13.95;6.80;;;;;;;1.84;96.36;97636.88;5044816;28;20063;-56
2022/02/12 02:37:25;;;;;;;17.15;7.80;;;;;;;1.89;93.91;97634.06;5043326;28;20056;-57
2022/02/12 02:39:52;;;;;;;15.82;6.78;;;;;;;1.80;94.01;97644.06;5044552;28;20633;-60
2022/02/12 02:42:19;;;;;;;24.95;11.38;;;;;;;1.68;94.53;97646.44;5045087;28;20057;-60
2022/02/12 02:44:45;;;;;;;24.52;14.60;;;;;;;1.67;95.08;97650.28;5045153;28;20412;-59
2022/02/12 02:50:01;;;;;;;27.98;11.80;;;;;;;1.41;95.12;97608.94;5044205;28;20078;-60
2022/02/12 02:58:00;;;;;;;21.92;9.70;;;;;;;1.86;94.52;97664.69;5044457;28;20525;-61
2022/02/12 03:00:26;;;;;;;21.15;9.82;;;;;;;1.80;93.98;97665.91;5044188;28;20530;-57
2022/02/12 03:02:53;;;;;;;17.60;8.73;;;;;;;1.44;95.00;97603.69;5044504;28;20064;-59
2022/02/12 03:05:20;;;;;;;20.23;7.32;;;;;;;1.37;96.79;97597.81;5042844;28;20595;-60
2022/02/12 03:07:46;;;;;;;19.42;7.68;;;;;;;1.85;96.84;97652.16;5044413;28;20059;-60
2022/02/12 03:10:13;;;;;;;47.97;17.10;;;;;;;1.79;96.43;97658.81;5044447;28;20061;-57
2022/02/12 03:12:40;;;;;;;21.33;8.98;;;;;;;1.54;96.52;97647.22;5044080;28;20057;-59
2022/02/12 03:15:07;;;;;;;22.60;9.40;;;;;;;1.86;95.78;97667.44;5044110;28;20053;-59
2022/02/12 03:17:33;;;;;;;21.10;9.48;;;;;;;1.68;96.05;97662.81;5044355;28;20483;-56
2022/02/12 03:20:00;;;;;;;17.48;8.98;;;;;;;1.53;96.59;97651.03;5043986;28;20056;-60
2022/02/12 03:22:27;;;;;;;19.90;7.95;;;;;;;1.69;96.79;97659.00;5044055;28;20060;-59
2022/02/12 03:24:53;;;;;;;22.98;9.15;;;;;;;1.75;96.30;97671.44;5043874;28;20048;-60
2022/02/12 03:27:20;;;;;;;17.45;9.20;;;;;;;1.81;93.41;97675.69;5043856;28;20495;-55
2022/02/12 03:29:47;;;;;;;23.50;9.57;;;;;;;1.47;94.25;97627.66;5043516;28;20535;-61
2022/02/12 03:32:13;;;;;;;26.27;9.05;;;;;;;1.61;95.83;97676.03;5042151;28;20057;-57
2022/02/12 03:34:40;;;;;;;20.10;8.20;;;;;;;0.35;96.58;97465.25;5041998;28;20055;-60
2022/02/12 03:37:07;;;;;;;47.40;12.75;;;;;;;1.64;96.37;97667.25;5042330;28;20056;-57
2022/02/12 03:39:34;;;;;;;29.23;9.13;;;;;;;1.52;96.80;97654.88;5043971;28;20708;-56
2022/02/12 03:42:01;;;;;;;29.77;10.23;;;;;;;1.62;97.56;97669.47;5044090;28;20045;-59
2022/02/12 03:44:27;;;;;;;25.13;11.25;;;;;;;1.69;97.02;97672.63;5043292;28;20049;-59
2022/02/12 03:46:54;;;;;;;22.08;9.60;;;;;;;1.51;97.71;97688.75;5043775;28;20110;-57
2022/02/12 03:49:21;;;;;;;26.13;10.27;;;;;;;0.96;100.00;97692.28;5043240;28;20063;-58
2022/02/12 03:51:47;;;;;;;26.80;10.77;;;;;;;1.20;100.00;97687.56;5043434;28;20443;-56
2022/02/12 03:54:16;;;;;;;24.00;11.07;;;;;;;0.47;98.49;97569.19;5043383;28;20559;-60
2022/02/12 03:56:43;;;;;;;25.23;11.68;;;;;;;1.12;100.00;97690.16;5043678;28;20048;-56
2022/02/12 03:59:09;;;;;;;28.13;12.07;;;;;;;1.17;99.58;97685.44;5043294;28;20052;-60
2022/02/12 04:01:36;;;;;;;23.70;10.43;;;;;;;1.31;100.00;97686.31;5058939;28;20498;-60
2022/02/12 04:04:03;;;;;;;31.45;10.75;;;;;;;1.24;100.00;97691.34;5043915;28;20041;-60
2022/02/12 04:06:29;;;;;;;32.30;13.23;;;;;;;1.45;98.02;97695.38;5043816;28;20499;-60
2022/02/12 04:08:56;;;;;;;23.58;11.18;;;;;;;1.58;97.03;97697.34;5043190;28;20057;-59
2022/02/12 04:11:23;;;;;;;27.55;11.45;;;;;;;1.18;99.51;97703.44;5043468;28;20049;-60
2022/02/12 04:13:50;;;;;;;30.42;12.50;;;;;;;0.88;100.00;97643.03;5042939;28;20557;-56
2022/02/12 04:16:16;;;;;;;22.98;10.10;;;;;;;1.33;100.00;97700.47;5042728;28;20057;-55
2022/02/12 04:18:43;;;;;;;23.83;10.02;;;;;;;1.48;100.00;97708.47;5043241;28;20052;-61
2022/02/12 04:21:10;;;;;;;18.75;8.80;;;;;;;1.49;99.64;97704.59;5043076;28;20053;-56
2022/02/12 04:23:36;;;;;;;12.68;6.78;;;;;;;1.60;100.00;97724.38;5043189;28;20087;-57
2022/02/12 04:26:05;;;;;;;14.40;6.95;;;;;;;1.62;99.92;97710.41;5041717;28;20053;-56
2022/02/12 04:28:36;;;;;;;15.55;6.88;;;;;;;0.96;99.13;97594.09;5028427;28;20075;-56
2022/02/12 04:31:04;;;;;;;14.45;7.00;;;;;;;1.52;98.59;97698.56;5043319;28;20053;-58
2022/02/12 04:33:31;;;;;;;19.75;9.65;;;;;;;1.68;98.14;97717.41;5042944;28;20045;-60
2022/02/12 04:35:58;;;;;;;33.95;15.02;;;;;;;1.18;96.49;97643.41;5041613;28;20048;-57
2022/02/12 04:38:27;;;;;;;33.63;16.08;;;;;;;1.60;96.33;97718.91;5041347;28;20547;-56
2022/02/12 04:40:54;;;;;;;32.33;14.45;;;;;;;1.58;96.56;97707.50;5041432;28;20059;-58
2022/02/12 04:43:41;;;;;;;27.33;12.77;;;;;;;1.50;97.73;97706.22;5042810;28;20045;-61
2022/02/12 04:46:08;;;;;;;61.00;21.55;;;;;;;1.41;98.50;97708.00;5043145;28;20045;-60
2022/02/12 04:48:34;;;;;;;53.38;18.77;;;;;;;1.50;98.52;97714.41;5046883;28;20052;-58
2022/02/12 04:51:01;;;;;;;38.28;15.73;;;;;;;1.15;96.29;97654.09;5047323;28;20051;-56
2022/02/12 04:53:27;;;;;;;62.45;23.85;;;;;;;1.01;97.17;97659.47;5045106;28;20045;-59
2022/02/12 04:55:54;;;;;;;52.60;19.45;;;;;;;1.11;100.00;97723.97;5046689;28;20481;-57
2022/02/12 04:58:21;;;;;;;40.67;17.23;;;;;;;0.55;100.00;97636.66;5046471;28;20048;-57
2022/02/12 05:00:47;;;;;;;43.45;18.02;;;;;;;0.76;100.00;97678.88;5046431;28;20059;-56
2022/02/12 05:03:14;;;;;;;66.22;22.67;;;;;;;1.16;100.00;97743.84;5046294;28;20049;-60
2022/02/12 05:05:41;;;;;;;35.55;16.00;;;;;;;1.07;97.63;97745.59;5046223;28;20044;-60
2022/02/12 05:08:08;;;;;;;33.80;15.48;;;;;;;0.87;97.65;97718.56;5046088;28;20045;-59
2022/02/12 05:10:35;;;;;;;48.25;20.60;;;;;;;1.18;96.23;97735.34;5045999;28;20091;-60
2022/02/12 05:13:02;;;;;;;71.50;30.35;;;;;;;1.26;96.19;97743.72;5046094;28;20060;-59
2022/02/12 05:15:28;;;;;;;64.90;25.13;;;;;;;0.69;99.35;97666.72;5046170;28;20061;-57
2022/02/12 05:17:55;;;;;;;37.50;14.70;;;;;;;1.21;100.00;97751.97;5046116;28;20071;-59
2022/02/12 05:20:22;;;;;;;101.18;27.02;;;;;;;0.44;100.00;97610.63;5045987;28;20056;-59
2022/02/12 05:22:49;;;;;;;263.55;61.55;;;;;;;1.35;100.00;97755.59;5045815;28;20561;-59
2022/02/12 05:25:15;;;;;;;96.70;29.05;;;;;;;1.35;100.00;97758.31;5046006;28;20522;-56
2022/02/12 05:27:42;;;;;;;48.58;18.90;;;;;;;1.26;100.00;97726.50;5046089;28;20443;-60
2022/02/12 05:30:09;;;;;;;58.63;19.10;;;;;;;1.19;98.93;97715.97;5045793;28;20048;-56
2022/02/12 05:32:36;;;;;;;44.78;18.00;;;;;;;1.19;98.29;97705.06;5046038;28;20052;-58
2022/02/12 05:35:03;;;;;;;62.83;22.80;;;;;;;1.42;98.20;97764.19;5046549;28;20057;-57
2022/02/12 05:37:30;;;;;;;75.15;23.55;;;;;;;0.73;99.47;97640.50;5046148;28;20060;-59
2022/02/12 05:39:56;;;;;;;42.08;17.80;;;;;;;1.68;98.70;97761.09;5046237;28;20545;-59
2022/02/12 05:42:23;;;;;;;116.82;39.17;;;;;;;1.61;99.35;97771.59;5045512;28;20053;-56
2022/02/12 05:44:51;;;;;;;76.85;25.45;;;;;;;1.56;98.92;97776.00;5045440;28;20069;-56
2022/02/12 05:47:18;;;;;;;38.20;18.15;;;;;;;1.66;96.93;97774.25;5045543;28;20553;-55
2022/02/12 05:49:44;;;;;;;63.67;27.25;;;;;;;1.82;94.87;97789.31;5045272;28;20052;-57
2022/02/12 05:52:11;;;;;;;67.65;26.90;;;;;;;1.93;95.18;97790.78;5046201;28;20056;-59
2022/02/12 05:54:38;;;;;;;48.13;18.10;;;;;;;1.17;93.66;97794.56;5045680;28;20049;-60
2022/02/12 05:57:05;;;;;;;36.92;15.02;;;;;;;1.28;94.15;97795.25;5045342;28;20056;-57
2022/02/12 05:59:31;;;;;;;58.85;22.88;;;;;;;1.44;93.81;97800.22;5045524;28;20045;-56
2022/02/12 06:01:59;;;;;;;106.30;43.60;;;;;;;1.00;94.00;97717.84;5045037;28;20057;-57
2022/02/12 06:04:26;;;;;;;53.53;20.55;;;;;;;1.27;94.92;97805.34;5045183;28;20238;-60
2022/02/12 06:06:53;;;;;;;59.85;22.20;;;;;;;1.31;97.16;97800.91;5045010;28;20556;-60
2022/02/12 06:09:20;;;;;;;60.42;23.20;;;;;;;1.57;96.56;97798.66;5045336;28;20083;-56
2022/02/12 06:11:46;;;;;;;58.83;25.45;;;;;;;1.55;94.86;97768.13;5045176;28;20060;-57
2022/02/12 06:14:13;;;;;;;61.20;26.15;;;;;;;1.98;94.84;97810.63;5045141;28;20060;-56
2022/02/12 06:16:40;;;;;;;38.13;15.05;;;;;;;0.90;95.30;97750.69;5045238;28;20059;-58
2022/02/12 06:19:07;;;;;;;48.95;19.20;;;;;;;0.65;99.67;97767.34;5045258;28;20044;-56
2022/02/12 06:21:33;;;;;;;49.78;17.48;;;;;;;1.51;100.00;97811.59;5044811;28;20045;-57
2022/02/12 06:24:00;;;;;;;48.33;20.40;;;;;;;1.86;99.07;97812.19;5044768;28;20504;-58
2022/02/12 06:26:27;;;;;;;39.38;20.23;;;;;;;2.16;98.04;97817.19;5044796;28;20049;-56
2022/02/12 06:28:53;;;;;;;19.20;9.00;;;;;;;1.13;94.42;97665.31;5044929;28;20048;-56
2022/02/12 06:31:20;;;;;;;21.33;9.93;;;;;;;1.56;100.00;97836.06;5043972;28;20053;-57
2022/02/12 06:33:46;;;;;;;22.75;9.40;;;;;;;2.00;98.13;97834.91;5045274;28;20427;-57
2022/02/12 06:36:13;;;;;;;27.67;10.60;;;;;;;2.46;96.11;97822.16;5045420;28;20053;-60
2022/02/12 06:38:40;;;;;;;26.92;11.95;;;;;;;2.25;91.83;97745.16;5045032;28;20057;-60
2022/02/12 06:41:06;;;;;;;61.20;25.13;;;;;;;3.03;89.35;97830.66;5044703;28;20061;-56
2022/02/12 06:43:34;;;;;;;40.45;15.45;;;;;;;3.04;90.04;97850.66;5043445;28;20053;-56
2022/02/12 06:46:01;;;;;;;61.25;22.85;;;;;;;3.35;90.47;97851.66;5044728;28;20049;-57
2022/02/12 06:48:28;;;;;;;88.43;35.08;;;;;;;3.67;87.91;97857.03;5042855;28;20144;-57
2022/02/12 06:50:55;;;;;;;75.72;32.55;;;;;;;3.89;86.61;97846.16;5044642;28;20049;-60
2022/02/12 06:53:22;;;;;;;82.50;34.45;;;;;;;3.77;84.95;97796.56;5044953;28;20134;-59
2022/02/12 06:55:49;;;;;;;100.75;42.88;;;;;;;4.35;83.96;97856.88;5043757;28;20526;-59
2022/02/12 06:58:15;;;;;;;121.65;50.83;;;;;;;4.42;82.81;97866.31;5044252;28;20064;-61
2022/02/12 07:00:42;;;;;;;126.45;49.63;;;;;;;4.53;83.07;97848.50;5044578;28;20060;-60
2022/02/12 07:03:09;;;;;;;123.30;49.88;;;;;;;4.69;82.42;97846.97;5044104;28;20049;-57
2022/02/12 07:05:36;;;;;;;93.65;40.08;;;;;;;4.74;83.82;97857.03;5042726;28;20049;-60
2022/02/12 07:08:03;;;;;;;70.35;32.63;;;;;;;4.56;86.04;97856.09;5043450;28;20045;-57
2022/02/12 07:10:32;;;;;;;69.85;32.25;;;;;;;5.04;84.63;97858.16;5042432;28;20079;-60
2022/02/12 07:12:58;;;;;;;66.70;28.65;;;;;;;5.40;82.81;97847.84;5042977;28;20063;-60
2022/02/12 07:15:25;;;;;;;40.40;19.83;;;;;;;5.75;81.16;97849.56;5059229;28;20533;-56
2022/02/12 07:17:53;;;;;;;46.67;19.13;;;;;;;5.68;79.04;97769.50;5043991;28;20057;-60
2022/02/12 07:20:20;;;;;;;44.40;17.95;;;;;;;5.90;76.90;97781.22;5058773;28;20111;-58
2022/02/12 07:22:47;;;;;;;38.45;18.30;;;;;;;6.30;79.08;97850.66;5042571;28;20515;-56
2022/02/12 07:25:15;;;;;;;41.60;19.42;;;;;;;6.77;78.47;97871.69;5043847;28;20053;-57
2022/02/12 07:27:42;;;;;;;39.60;18.95;;;;;;;6.90;76.74;97806.56;5043805;28;20049;-60
2022/02/12 07:30:14;;;;;;;34.40;16.10;;;;;;;7.24;75.84;97859.59;5044118;28;20049;-57
2022/02/12 07:32:42;;;;;;;24.63;9.88;;;;;;;6.70;82.71;97863.09;5043975;28;20057;-60
2022/02/12 07:35:12;;;;;;;19.85;9.95;;;;;;;7.05;82.07;97878.44;5044181;28;20083;-60
2022/02/12 07:37:40;;;;;;;17.58;9.20;;;;;;;7.33;78.83;97868.63;5043473;28;20068;-58
2022/02/12 07:40:07;;;;;;;18.58;10.07;;;;;;;7.55;78.71;97865.66;5043644;28;20049;-60
2022/02/12 07:42:35;;;;;;;22.25;12.32;;;;;;;7.68;75.77;97842.56;5043711;28;20275;-56
2022/02/12 07:45:04;;;;;;;103.38;37.92;;;;;;;7.92;73.50;97864.00;5043401;28;20060;-60
2022/02/12 07:47:30;;;;;;;115.65;41.83;;;;;;;7.93;73.78;97859.31;5043387;28;20431;-60
2022/02/12 07:49:57;;;;;;;124.43;47.75;;;;;;;8.25;73.79;97859.44;5043401;28;20053;-60
2022/02/12 07:52:24;;;;;;;76.28;31.73;;;;;;;8.52;72.94;97866.41;5043489;28;20049;-59
2022/02/12 07:54:51;;;;;;;71.32;32.22;;;;;;;8.85;71.38;97864.50;5044009;28;20051;-57
2022/02/12 07:57:18;;;;;;;69.68;35.00;;;;;;;9.13;69.61;97882.09;5043977;28;20107;-60
2022/02/12 07:59:44;;;;;;;120.53;54.10;;;;;;;9.45;68.07;97872.97;5058420;28;20052;-61
2022/02/12 08:02:11;;;;;;;113.35;53.88;;;;;;;9.45;68.62;97875.75;5042904;28;20123;-56
2022/02/12 08:04:38;;;;;;;44.47;19.88;;;;;;;8.64;73.26;97825.03;5041358;28;20057;-57
2022/02/12 08:09:50;;;;;;;67.30;30.25;;;;;;;9.03;70.93;97805.13;5043540;28;20045;-59
2022/02/12 08:12:18;;;;;;;39.17;18.77;;;;;;;9.32;72.80;97879.63;5043470;28;20048;-57
2022/02/12 08:14:53;;;;;;;34.30;16.60;;;;;;;9.38;71.37;97872.72;5043125;28;20052;-60
2022/02/12 08:17:22;;;;;;;20.38;10.38;;;;;;;8.41;71.76;97710.59;5043287;28;20084;-61
2022/02/12 08:19:50;;;;;;;18.98;8.43;;;;;;;8.95;69.59;97861.31;5044476;28;20057;-57
2022/02/12 08:22:18;;;;;;;16.38;6.93;;;;;;;8.80;69.37;97884.03;5046394;28;20049;-57
2022/02/12 08:24:46;;;;;;;13.85;6.15;;;;;;;8.91;68.72;97880.53;5046969;28;20559;-60
2022/02/12 08:27:14;;;;;;;15.60;7.15;;;;;;;9.27;68.46;97882.59;5047561;28;20059;-60
2022/02/12 08:29:43;;;;;;;20.33;9.93;;;;;;;9.70;67.24;97879.34;5047250;28;20394;-57
2022/02/12 08:32:12;;;;;;;23.48;10.80;;;;;;;10.01;66.62;97861.03;5045775;28;20369;-61
2022/02/12 08:34:42;;;;;;;35.83;16.52;;;;;;;10.55;64.27;97876.22;5047047;28;20052;-62
2022/02/12 08:37:12;;;;;;;37.72;18.92;;;;;;;10.72;63.42;97847.41;5047192;28;20467;-60
2022/02/12 08:39:45;;;;;;;54.63;22.38;;;;;;;11.40;60.96;97878.63;5045170;28;20045;-61
2022/02/12 08:42:12;;;;;;;39.95;15.38;;;;;;;11.72;60.07;97878.38;5046718;28;20075;-60
2022/02/12 08:44:39;;;;;;;29.48;12.75;;;;;;;12.01;57.91;97877.13;5047135;28;20061;-61
2022/02/12 08:47:09;;;;;;;29.63;12.23;;;;;;;12.21;56.07;97876.00;5046806;28;20045;-62
2022/02/12 08:49:37;;;;;;;51.08;16.73;;;;;;;12.46;54.47;97874.63;5046650;28;20053;-58
2022/02/12 08:52:05;;;;;;;58.38;18.05;;;;;;;12.70;53.61;97877.16;5046654;28;20491;-58
2022/02/12 08:54:34;;;;;;;24.65;10.77;;;;;;;12.65;50.84;97829.38;5046754;28;20049;-60
2022/02/12 08:57:02;;;;;;;26.90;11.98;;;;;;;13.15;50.93;97891.25;5044720;28;20521;-61
2022/02/12 08:59:31;;;;;;;21.40;9.32;;;;;;;13.48;50.55;97888.72;5046435;28;20076;-59
2022/02/12 09:02:09;;;;;;;14.13;7.22;;;;;;;13.27;48.02;97824.34;5045630;28;20052;-59
2022/02/12 09:04:36;;;;;;;17.90;7.55;;;;;;;13.54;48.32;97887.28;5047235;28;20061;-61
2022/02/12 09:07:03;;;;;;;9.93;5.28;;;;;;;13.80;46.54;97888.53;5046291;28;20044;-62
2022/02/12 09:09:30;;;;;;;12.75;6.35;;;;;;;14.09;46.20;97885.88;5046787;28;20052;-58
2022/02/12 09:11:57;;;;;;;10.10;6.18;;;;;;;14.40;45.41;97896.75;5045191;28;20056;-57
2022/02/12 09:14:24;;;;;;;12.80;4.30;;;;;;;14.50;44.10;97884.16;5046327;28;20049;-60
2022/02/12 09:16:51;;;;;;;12.63;5.72;;;;;;;14.46;44.38;97872.16;5044594;28;20067;-61
2022/02/12 09:19:20;;;;;;;11.15;4.93;;;;;;;14.42;45.26;97885.22;5046248;28;20053;-58
2022/02/12 09:21:47;;;;;;;9.02;4.38;;;;;;;14.40;44.24;97912.69;5046252;28;20052;-59
2022/02/12 09:24:14;;;;;;;6.75;3.78;;;;;;;13.91;44.18;97833.81;5046484;28;20424;-57
2022/02/12 09:26:41;;;;;;;9.70;4.07;;;;;;;14.05;43.33;97853.56;5046321;28;20356;-59
2022/02/12 09:29:07;;;;;;;8.77;4.45;;;;;;;14.36;43.05;97895.91;5046009;28;20132;-60
2022/02/12 09:31:34;;;;;;;8.40;3.90;;;;;;;14.13;43.49;97852.50;5044965;28;20566;-59
2022/02/12 09:34:02;;;;;;;16.33;6.45;;;;;;;14.22;44.33;97895.66;5046038;28;20617;-61
2022/02/12 09:36:29;;;;;;;15.40;6.70;;;;;;;14.36;44.38;97893.13;5045690;28;20278;-61
2022/02/12 09:38:55;;;;;;;7.93;4.45;;;;;;;14.12;44.52;97892.66;5045573;28;20342;-61
2022/02/12 09:41:26;;;;;;;14.82;6.82;;;;;;;14.43;44.44;97895.22;5045960;28;20051;-61
2022/02/12 09:43:54;;;;;;;6.90;3.00;;;;;;;13.92;44.21;97886.38;5045877;28;20053;-61
2022/02/12 09:46:58;;;;;;;9.27;4.65;;;;;;;13.80;45.52;97882.97;5045356;28;20048;-61
2022/02/12 09:49:26;;;;;;;5.75;3.85;;;;;;;14.13;43.86;97891.50;5045131;28;20064;-62
2022/02/12 09:51:53;;;;;;;8.07;3.78;;;;;;;14.02;43.24;97813.31;5045812;28;20049;-58
2022/02/12 09:54:20;;;;;;;10.07;4.00;;;;;;;14.71;43.02;97887.25;5043708;28;20059;-59
2022/02/12 09:56:46;;;;;;;7.80;3.53;;;;;;;14.83;41.95;97889.81;5043809;28;20061;-58
2022/02/12 09:59:14;;;;;;;12.75;4.65;;;;;;;14.54;42.16;97834.84;5044415;28;20191;-60
2022/02/12 10:01:41;;;;;;;8.82;4.53;;;;;;;15.14;41.54;97886.66;5045318;28;20045;-57
2022/02/12 10:04:20;;;;;;;7.05;4.00;;;;;;;15.15;40.55;97894.66;5045481;28;20041;-58
2022/02/12 10:06:48;;;;;;;8.65;3.35;;;;;;;14.07;41.01;97803.84;5043289;28;20064;-56
2022/02/12 10:09:15;;;;;;;6.80;3.38;;;;;;;15.08;40.77;97877.81;5043482;28;20051;-59
2022/02/12 10:11:51;;;;;;;7.15;3.20;;;;;;;15.22;40.77;97880.00;5045127;28;20495;-59
2022/02/12 10:14:24;;;;;;;4.85;2.90;;;;;;;14.86;40.52;97814.56;5043740;28;20053;-60
2022/02/12 10:17:00;;;;;;;5.43;3.00;;;;;;;15.43;40.39;97866.28;5045326;28;20534;-57
2022/02/12 10:19:38;;;;;;;9.13;3.03;;;;;;;15.50;41.40;97863.59;5043553;28;20186;-59
2022/02/12 10:22:15;;;;;;;19.98;6.32;;;;;;;15.67;41.45;97865.75;5045342;28;20049;-59
2022/02/12 10:24:50;;;;;;;9.95;4.40;;;;;;;15.61;39.78;97863.69;5045084;28;20045;-60
2022/02/12 10:27:27;;;;;;;4.90;3.22;;;;;;;15.42;39.95;97864.69;5044700;28;20051;-59
2022/02/12 10:29:55;;;;;;;5.63;3.15;;;;;;;15.54;39.82;97856.03;5044576;28;20053;-60
2022/02/12 10:32:24;;;;;;;6.63;3.65;;;;;;;15.61;40.11;97860.91;5043226;28;20054;-60
2022/02/12 10:34:53;;;;;;;8.98;3.72;;;;;;;15.42;39.75;97808.84;5044763;28;20045;-56
2022/02/12 10:37:24;;;;;;;8.85;3.60;;;;;;;15.47;39.36;97777.78;5042976;28;20257;-60
2022/02/12 10:39:59;;;;;;;6.78;3.63;;;;;;;16.07;39.22;97857.38;5043213;28;20048;-60
2022/02/12 10:42:29;;;;;;;8.25;4.43;;;;;;;16.27;38.98;97855.13;5044702;28;20049;-58
2022/02/12 10:45:04;;;;;;;11.02;5.00;;;;;;;16.43;38.97;97845.28;5045158;28;20056;-59
2022/02/12 10:47:31;;;;;;;8.40;3.15;;;;;;;16.43;38.07;97822.91;5044921;28;20463;-60
2022/02/12 10:49:59;;;;;;;4.95;3.03;;;;;;;16.04;38.25;97846.97;5043203;28;20489;-60
2022/02/12 10:52:48;;;;;;;9.30;3.70;;;;;;;15.98;38.63;97851.28;5044686;28;20049;-60
2022/02/12 10:55:37;;;;;;;8.93;4.20;;;;;;;15.98;38.83;97825.34;5044280;28;20064;-60
2022/02/12 10:58:13;;;;;;;5.10;3.20;;;;;;;15.65;39.68;97843.00;5042918;28;20487;-61
2022/02/12 11:00:42;;;;;;;6.78;2.95;;;;;;;14.98;39.91;97789.19;5043830;28;20053;-59
2022/02/12 11:03:12;;;;;;;6.63;3.47;;;;;;;15.56;40.31;97836.91;5044242;28;20059;-61
2022/02/12 11:05:41;;;;;;;4.80;2.83;;;;;;;15.63;39.46;97817.47;5044040;28;20052;-60
2022/02/12 11:08:09;;;;;;;8.93;3.72;;;;;;;15.12;40.84;97777.41;5044228;28;20431;-61
2022/02/12 11:10:38;;;;;;;5.63;2.13;;;;;;;15.04;40.88;97843.50;5043930;28;20164;-58
2022/02/12 11:13:06;;;;;;;22.25;6.95;;;;;;;14.91;40.85;97769.59;5044215;28;20079;-60
2022/02/12 11:15:34;;;;;;;5.30;2.00;;;;;;;14.74;40.88;97851.06;5044262;28;20053;-59
2022/02/12 11:18:10;;;;;;;5.10;2.67;;;;;;;14.69;41.75;97850.56;5044379;28;20078;-59
2022/02/12 11:20:40;;;;;;;7.93;2.67;;;;;;;14.58;42.27;97852.41;5043596;28;20060;-59
2022/02/12 11:23:26;;;;;;;4.07;2.42;;;;;;;14.46;41.42;97855.44;5043777;28;20519;-60
2022/02/12 11:26:02;;;;;;;6.93;3.45;;;;;;;14.79;41.38;97849.94;5043804;28;20053;-57
2022/02/12 11:28:30;;;;;;;8.75;3.55;;;;;;;14.99;40.82;97841.03;5041970;28;20060;-60
2022/02/12 11:31:24;;;;;;;4.63;1.77;;;;;;;14.55;40.30;97847.59;5042306;28;20476;-60
2022/02/12 11:34:09;;;;;;;5.70;2.60;;;;;;;14.51;40.91;97853.09;5043930;28;20546;-57
2022/02/12 11:36:37;;;;;;;6.82;2.65;;;;;;;14.66;41.16;97841.00;5044399;28;20091;-60
2022/02/12 11:39:05;;;;;;;4.28;2.45;;;;;;;14.56;41.07;97871.50;5043467;28;20057;-60
2022/02/12 11:41:32;;;;;;;9.38;3.38;;;;;;;14.63;41.47;97849.31;5043964;28;20056;-63